Time;durP1;ratioP1;P1;durP2;ratioP2;P2;SDS_P1;SDS_P2;PMS_P1;PMS_P2;Temp;Humidity;BMP_temperature;BMP_pressure;BME280_temperature;BME280_humidity;BME280_pressure;Samples;Min_cycle;Max_cycle;Signal;HPM_P1;HPM_P2
2021/11/29 00:12:35;;;;;;;80.43;27.73;;;;;;;2.64;100.00;98134.94;20852222;27;8295739;-57
2021/11/29 00:23:12;;;;;;;96.33;29.10;;;;;;;2.62;100.00;98136.84;21141340;28;20279;-57
2021/11/29 00:33:49;;;;;;;75.30;23.67;;;;;;;2.59;100.00;98123.03;21140700;28;20250;-58
2021/11/29 00:44:27;;;;;;;83.37;27.93;;;;;;;2.49;100.00;98105.22;21140011;28;20222;-57
2021/11/29 00:55:04;;;;;;;88.00;26.30;;;;;;;2.48;100.00;98110.59;21137788;28;20715;-57
2021/11/29 01:25:32;;;;;;;96.40;28.70;;;;;;;2.31;100.00;98101.16;20688822;27;8278933;-58
2021/11/29 01:46:05;;;;;;;94.10;26.87;;;;;;;2.24;100.00;98081.47;20701938;27;8218879;-58
2021/11/29 01:56:46;;;;;;;83.93;26.20;;;;;;;2.25;100.00;98080.53;20972985;28;20236;-61
2021/11/29 02:07:22;;;;;;;104.80;27.33;;;;;;;2.20;100.00;98087.88;21052243;28;20234;-62
2021/11/29 02:18:00;;;;;;;89.40;24.93;;;;;;;2.15;100.00;98096.09;21048035;28;20269;-59
2021/11/29 02:28:37;;;;;;;115.33;30.30;;;;;;;2.01;100.00;98079.53;20953809;28;20227;-61
2021/11/29 02:49:12;;;;;;;97.70;29.37;;;;;;;1.45;100.00;98086.63;20698643;27;8273818;-60
2021/11/29 02:59:44;;;;;;;117.80;29.03;;;;;;;1.36;100.00;98080.16;21056431;28;20226;-60
2021/11/29 03:10:22;;;;;;;101.50;28.77;;;;;;;1.22;100.00;98097.72;21041336;28;20222;-62
2021/11/29 03:20:59;;;;;;;73.43;23.13;;;;;;;1.16;100.00;98082.38;21039079;28;20256;-58
2021/11/29 03:51:24;;;;;;;56.23;20.67;;;;;;;0.93;100.00;98087.25;20698889;27;8098770;-59
2021/11/29 04:12:02;;;;;;;65.97;20.90;;;;;;;0.92;100.00;98085.56;20701274;27;8297379;-58
2021/11/29 04:22:39;;;;;;;56.43;19.13;;;;;;;0.95;100.00;98100.28;21038842;28;20261;-60
2021/11/29 04:33:16;;;;;;;72.23;22.73;;;;;;;0.95;100.00;98090.63;21056362;28;20313;-57
2021/11/29 04:53:48;;;;;;;68.60;22.67;;;;;;;0.95;100.00;98080.13;20707715;27;8274025;-60
2021/11/29 05:14:22;;;;;;;65.13;21.87;;;;;;;0.83;100.00;98101.03;20712815;27;8245760;-57
2021/11/29 05:24:59;;;;;;;77.03;24.37;;;;;;;0.87;100.00;98118.25;20973121;28;20322;-57
2021/11/29 05:35:36;;;;;;;66.93;24.67;;;;;;;0.81;100.00;98124.75;21010292;28;20316;-58
2021/11/29 05:46:13;;;;;;;76.07;25.40;;;;;;;0.82;100.00;98168.44;21049208;28;20279;-62
2021/11/29 06:06:49;;;;;;;61.87;24.23;;;;;;;0.77;100.00;98165.22;20727644;27;8219016;-57
2021/11/29 06:17:26;;;;;;;64.80;23.50;;;;;;;0.77;100.00;98174.88;20958546;28;20258;-57
2021/11/29 06:28:03;;;;;;;55.17;22.40;;;;;;;0.72;100.00;98186.47;20969245;28;20231;-60
2021/11/29 06:38:40;;;;;;;50.00;21.60;;;;;;;0.75;100.00;98187.25;20971581;28;20265;-59
2021/11/29 06:59:14;;;;;;;44.70;21.27;;;;;;;0.65;100.00;98182.53;20690425;27;8303846;-57
2021/11/29 07:19:52;;;;;;;47.57;21.17;;;;;;;0.68;100.00;98205.97;20689233;27;8260859;-58
2021/11/29 07:40:27;;;;;;;47.60;18.97;;;;;;;0.77;100.00;98238.72;20756995;27;8277318;-56
2021/11/29 07:51:04;;;;;;;42.87;20.53;;;;;;;0.82;100.00;98231.44;21056907;28;20230;-57
2021/11/29 08:01:41;;;;;;;45.27;20.47;;;;;;;0.81;100.00;98245.50;21056074;28;20308;-57
2021/11/29 08:12:18;;;;;;;50.90;21.37;;;;;;;0.78;100.00;98250.91;21054813;28;20313;-57
2021/11/29 08:32:50;;;;;;;52.23;20.60;;;;;;;0.83;100.00;98264.63;20845128;27;8233858;-57
2021/11/29 08:53:30;;;;;;;51.47;19.70;;;;;;;0.82;100.00;98241.94;20854429;27;8284135;-56
2021/11/29 09:04:07;;;;;;;47.23;19.33;;;;;;;0.73;100.00;98235.41;21211497;27;20249;-55
2021/11/29 09:14:44;;;;;;;45.87;17.60;;;;;;;0.72;100.00;98243.41;21224503;27;20755;-56
2021/11/29 09:25:15;;;;;;;36.90;17.47;;;;;;;0.77;100.00;98253.63;21223195;27;20281;-57
2021/11/29 09:35:52;;;;;;;46.97;18.97;;;;;;;0.75;100.00;98256.31;21223704;27;20224;-56
2021/11/29 09:56:32;;;;;;;44.57;18.70;;;;;;;0.83;100.00;98227.88;20900682;27;8314536;-56
2021/11/29 10:07:10;;;;;;;43.67;19.63;;;;;;;0.82;100.00;98252.44;21226097;27;20277;-56
2021/11/29 10:17:47;;;;;;;49.10;20.07;;;;;;;0.79;100.00;98231.59;21225563;27;20600;-56
2021/11/29 10:28:46;;;;;;;42.63;18.90;;;;;;;0.81;100.00;98229.75;21224312;27;20766;-56
2021/11/29 10:39:29;;;;;;;43.30;19.40;;;;;;;0.94;100.00;98241.22;21223961;27;20225;-56
2021/11/29 10:50:08;;;;;;;40.33;18.57;;;;;;;1.06;100.00;98245.75;21221466;27;20309;-56
2021/11/29 11:10:41;;;;;;;39.87;18.40;;;;;;;1.07;100.00;98238.72;20770705;27;8281691;-56
2021/11/29 11:21:23;;;;;;;36.57;18.07;;;;;;;1.07;100.00;98210.69;21056845;28;20288;-57
2021/11/29 11:52:19;;;;;;;51.97;21.67;;;;;;;1.27;100.00;98212.09;20696283;27;8274511;-56
2021/11/29 12:13:04;;;;;;;40.03;19.03;;;;;;;1.29;100.00;98226.00;20763270;27;8338620;-57
2021/11/29 12:23:56;;;;;;;43.80;20.43;;;;;;;1.34;100.00;98238.84;21057009;28;20235;-57
2021/11/29 12:34:51;;;;;;;30.77;18.00;;;;;;;1.36;100.00;98232.56;21055813;28;20222;-56
2021/11/29 12:45:29;;;;;;;27.43;17.20;;;;;;;1.33;100.00;98231.88;21052119;28;20334;-56
2021/11/29 12:56:12;;;;;;;21.80;15.13;;;;;;;1.21;100.00;98237.91;21048462;28;20227;-56
2021/11/29 13:07:00;;;;;;;25.37;14.90;;;;;;;1.28;100.00;98245.31;21052075;28;20249;-59
2021/11/29 13:17:43;;;;;;;19.93;13.57;;;;;;;1.28;100.00;98252.34;21033602;28;20220;-58
2021/11/29 13:28:20;;;;;;;26.03;14.93;;;;;;;1.27;100.00;98253.28;20995969;28;20255;-56
2021/11/29 13:48:51;;;;;;;20.23;13.40;;;;;;;1.27;100.00;98279.56;20772513;27;8179771;-55
2021/11/29 13:59:28;;;;;;;23.33;14.90;;;;;;;1.31;100.00;98287.16;21056853;28;20285;-57
2021/11/29 14:10:05;;;;;;;20.97;13.53;;;;;;;1.29;100.00;98289.03;21055836;28;20234;-56
2021/11/29 14:30:38;;;;;;;21.73;13.93;;;;;;;1.30;100.00;98313.53;20933873;27;8332540;-59
2021/11/29 14:51:09;;;;;;;25.17;16.33;;;;;;;1.32;100.00;98332.69;20590678;27;8193301;-55
2021/11/29 15:01:46;;;;;;;28.60;16.90;;;;;;;1.35;100.00;98350.88;20890245;28;20291;-56
2021/11/29 15:22:33;;;;;;;34.77;20.67;;;;;;;1.30;100.00;98373.97;20689198;27;8323329;-55
2021/11/29 15:33:13;;;;;;;32.97;19.37;;;;;;;1.29;100.00;98372.25;21028157;28;20223;-56
2021/11/29 15:53:50;;;;;;;36.87;20.53;;;;;;;1.23;100.00;98378.69;20767864;27;8300557;-57
2021/11/29 16:14:22;;;;;;;32.90;20.77;;;;;;;1.22;100.00;98402.44;20716518;27;8213459;-57
2021/11/29 16:24:59;;;;;;;42.50;22.80;;;;;;;1.26;100.00;98420.56;21056438;28;20231;-57
2021/11/29 16:35:36;;;;;;;37.97;20.33;;;;;;;1.30;100.00;98426.50;21055253;28;20612;-57
2021/11/29 16:46:13;;;;;;;35.23;21.53;;;;;;;1.26;100.00;98432.84;21053281;28;20233;-60
2021/11/29 16:56:50;;;;;;;45.13;22.43;;;;;;;1.27;100.00;98445.91;21052886;28;20271;-58
2021/11/29 17:07:28;;;;;;;48.57;23.90;;;;;;;1.29;100.00;98458.97;21052342;28;20295;-60
2021/11/29 17:18:05;;;;;;;50.43;24.13;;;;;;;1.28;100.00;98471.25;21014898;28;20258;-60
2021/11/29 17:38:36;;;;;;;43.37;21.43;;;;;;;1.24;100.00;98484.63;20756412;27;8523122;-55
2021/11/29 17:49:14;;;;;;;40.70;22.20;;;;;;;1.18;100.00;98491.09;21048682;28;20635;-56
2021/11/29 17:59:51;;;;;;;43.73;21.53;;;;;;;1.16;100.00;98499.97;21050551;28;20243;-57
2021/11/29 18:21:22;;;;;;;40.93;23.57;;;;;;;1.34;100.00;98519.94;20978535;28;20827;-55
2021/11/29 18:32:01;;;;;;;44.13;24.03;;;;;;;1.44;100.00;98526.41;20967023;28;20248;-56
2021/11/29 18:42:38;;;;;;;36.00;21.33;;;;;;;1.43;100.00;98543.13;20993340;28;20659;-56
2021/11/29 18:53:16;;;;;;;29.13;18.63;;;;;;;1.46;100.00;98542.91;20961785;28;20318;-58
2021/11/29 19:03:53;;;;;;;26.03;16.23;;;;;;;1.45;100.00;98551.72;20978747;28;20297;-61
2021/11/29 19:14:30;;;;;;;28.20;17.30;;;;;;;1.51;100.00;98590.84;20988512;28;20238;-61
2021/11/29 19:35:02;;;;;;;24.67;16.23;;;;;;;1.54;100.00;98609.06;20602942;27;8250694;-61
2021/11/29 19:45:39;;;;;;;25.83;17.73;;;;;;;1.61;100.00;98620.94;20890709;28;20842;-57
2021/11/29 20:16:07;;;;;;;31.20;19.13;;;;;;;1.67;100.00;98646.91;20501045;27;8294648;-56
2021/11/29 20:46:37;;;;;;;32.27;21.10;;;;;;;1.54;100.00;98640.63;20903991;27;8284115;-58
2021/11/29 20:57:15;;;;;;;35.40;21.67;;;;;;;1.39;100.00;98658.03;21102582;28;20245;-59
2021/11/29 21:07:52;;;;;;;40.53;24.37;;;;;;;1.33;100.00;98662.75;21143068;28;20242;-62
2021/11/29 21:18:29;;;;;;;50.23;25.67;;;;;;;1.37;100.00;98661.69;21184388;28;20312;-56
2021/11/29 21:29:07;;;;;;;37.23;21.67;;;;;;;1.35;100.00;98671.41;21222743;28;20315;-60
2021/11/29 21:39:44;;;;;;;36.20;21.70;;;;;;;1.32;100.00;98679.50;21136451;28;20224;-62
2021/11/29 21:50:21;;;;;;;41.53;21.90;;;;;;;1.21;100.00;98684.47;21112035;28;20643;-57
2021/11/29 22:00:58;;;;;;;42.70;21.93;;;;;;;1.21;100.00;98689.72;21066660;28;20694;-57
2021/11/29 22:11:35;;;;;;;33.90;19.90;;;;;;;1.23;100.00;98714.09;21076878;28;20753;-56
2021/11/29 22:22:12;;;;;;;28.10;17.37;;;;;;;1.26;100.00;98716.59;21124091;28;20233;-56
2021/11/29 22:32:49;;;;;;;24.33;16.03;;;;;;;1.24;100.00;98724.53;21077083;28;20601;-57
2021/11/29 22:43:27;;;;;;;28.43;16.63;;;;;;;1.24;100.00;98736.81;21075255;28;20240;-57
2021/11/29 22:54:04;;;;;;;23.13;15.73;;;;;;;1.28;100.00;98738.38;21073109;28;20268;-57
2021/11/29 23:04:42;;;;;;;27.50;16.93;;;;;;;1.29;100.00;98750.59;21071475;28;20233;-57
2021/11/29 23:15:19;;;;;;;20.00;14.00;;;;;;;1.27;100.00;98741.94;21073546;28;20275;-58
2021/11/29 23:25:55;;;;;;;20.47;14.30;;;;;;;1.26;100.00;98751.59;21072674;28;20233;-58
2021/11/29 23:36:33;;;;;;;18.17;12.27;;;;;;;1.28;100.00;98769.91;21072750;28;20232;-57
2021/11/29 23:47:18;;;;;;;15.30;11.83;;;;;;;1.21;100.00;98773.78;21069849;28;20624;-58
2021/11/29 23:57:54;;;;;;;22.77;14.07;;;;;;;1.21;100.00;98784.28;21070604;28;20262;-58
